sensor_id;sensor_type;location;lat;lon;timestamp;temperature;humidity
62154;DHT22;48140;45.486;9.226;2022-09-20T00:02:18;19.30;25.90
62154;DHT22;48140;45.486;9.226;2022-09-20T00:04:46;19.40;26.20
62154;DHT22;48140;45.486;9.226;2022-09-20T00:07:12;19.30;26.30
62154;DHT22;48140;45.486;9.226;2022-09-20T00:09:37;19.20;26.70
62154;DHT22;48140;45.486;9.226;2022-09-20T00:12:04;19.30;26.50
62154;DHT22;48140;45.486;9.226;2022-09-20T00:14:30;19.20;26.50
62154;DHT22;48140;45.486;9.226;2022-09-20T00:16:55;19.20;26.60
62154;DHT22;48140;45.486;9.226;2022-09-20T00:19:21;19.20;26.90
62154;DHT22;48140;45.486;9.226;2022-09-20T00:21:46;19.10;27.00
62154;DHT22;48140;45.486;9.226;2022-09-20T00:24:12;19.10;27.20
62154;DHT22;48140;45.486;9.226;2022-09-20T00:26:37;19.00;27.30
62154;DHT22;48140;45.486;9.226;2022-09-20T00:29:04;19.00;27.40
62154;DHT22;48140;45.486;9.226;2022-09-20T00:31:29;18.90;27.40
62154;DHT22;48140;45.486;9.226;2022-09-20T00:33:56;18.80;28.40
62154;DHT22;48140;45.486;9.226;2022-09-20T00:36:40;18.80;27.60
62154;DHT22;48140;45.486;9.226;2022-09-20T00:39:05;18.80;27.90
62154;DHT22;48140;45.486;9.226;2022-09-20T00:41:31;18.70;27.80
62154;DHT22;48140;45.486;9.226;2022-09-20T00:43:57;18.60;28.00
62154;DHT22;48140;45.486;9.226;2022-09-20T00:49:02;18.60;28.20
62154;DHT22;48140;45.486;9.226;2022-09-20T00:51:31;18.70;28.60
62154;DHT22;48140;45.486;9.226;2022-09-20T00:53:58;18.70;28.20
62154;DHT22;48140;45.486;9.226;2022-09-20T00:56:26;18.60;28.10
62154;DHT22;48140;45.486;9.226;2022-09-20T01:01:37;18.50;28.50
62154;DHT22;48140;45.486;9.226;2022-09-20T01:04:02;18.50;28.60
62154;DHT22;48140;45.486;9.226;2022-09-20T01:06:29;18.50;28.50
62154;DHT22;48140;45.486;9.226;2022-09-20T01:08:55;18.50;28.70
62154;DHT22;48140;45.486;9.226;2022-09-20T01:11:23;18.40;28.70
62154;DHT22;48140;45.486;9.226;2022-09-20T01:13:49;18.50;28.60
62154;DHT22;48140;45.486;9.226;2022-09-20T01:16:14;18.50;28.70
62154;DHT22;48140;45.486;9.226;2022-09-20T01:18:41;18.50;28.80
62154;DHT22;48140;45.486;9.226;2022-09-20T01:21:08;18.40;28.70
62154;DHT22;48140;45.486;9.226;2022-09-20T01:28:52;18.40;29.00
62154;DHT22;48140;45.486;9.226;2022-09-20T01:31:24;18.40;29.20
62154;DHT22;48140;45.486;9.226;2022-09-20T01:39:16;18.30;29.50
62154;DHT22;48140;45.486;9.226;2022-09-20T01:42:17;18.20;29.50
62154;DHT22;48140;45.486;9.226;2022-09-20T01:44:37;18.20;29.60
62154;DHT22;48140;45.486;9.226;2022-09-20T01:47:08;18.20;29.60
62154;DHT22;48140;45.486;9.226;2022-09-20T01:49:51;18.10;29.60
62154;DHT22;48140;45.486;9.226;2022-09-20T01:52:32;18.10;29.70
62154;DHT22;48140;45.486;9.226;2022-09-20T02:08:05;18.10;30.10
62154;DHT22;48140;45.486;9.226;2022-09-20T02:16:04;18.00;30.20
62154;DHT22;48140;45.486;9.226;2022-09-20T02:18:44;17.90;30.10
62154;DHT22;48140;45.486;9.226;2022-09-20T02:21:28;17.90;30.40
62154;DHT22;48140;45.486;9.226;2022-09-20T02:24:07;17.80;30.40
62154;DHT22;48140;45.486;9.226;2022-09-20T02:26:40;17.80;30.90
62154;DHT22;48140;45.486;9.226;2022-09-20T02:42:24;17.60;30.80
62154;DHT22;48140;45.486;9.226;2022-09-20T02:49:56;17.60;30.90
62154;DHT22;48140;45.486;9.226;2022-09-20T02:52:45;17.70;30.90
62154;DHT22;48140;45.486;9.226;2022-09-20T02:55:16;17.60;31.10
62154;DHT22;48140;45.486;9.226;2022-09-20T02:57:49;17.60;30.80
62154;DHT22;48140;45.486;9.226;2022-09-20T03:05:26;17.60;31.50
62154;DHT22;48140;45.486;9.226;2022-09-20T03:08:03;17.70;31.30
62154;DHT22;48140;45.486;9.226;2022-09-20T03:13:12;17.50;32.20
62154;DHT22;48140;45.486;9.226;2022-09-20T03:18:14;17.50;31.80
62154;DHT22;48140;45.486;9.226;2022-09-20T03:20:51;17.50;31.70
62154;DHT22;48140;45.486;9.226;2022-09-20T03:25:54;17.50;32.20
62154;DHT22;48140;45.486;9.226;2022-09-20T03:28:23;17.50;33.10
62154;DHT22;48140;45.486;9.226;2022-09-20T03:33:38;17.50;32.30
62154;DHT22;48140;45.486;9.226;2022-09-20T03:56:30;16.70;34.80
62154;DHT22;48140;45.486;9.226;2022-09-20T04:06:58;16.40;36.30
62154;DHT22;48140;45.486;9.226;2022-09-20T04:12:20;16.30;36.40
62154;DHT22;48140;45.486;9.226;2022-09-20T04:14:56;16.20;36.60
62154;DHT22;48140;45.486;9.226;2022-09-20T04:17:27;16.30;36.70
62154;DHT22;48140;45.486;9.226;2022-09-20T04:20:01;16.30;37.00
62154;DHT22;48140;45.486;9.226;2022-09-20T04:22:28;16.30;37.00
62154;DHT22;48140;45.486;9.226;2022-09-20T04:30:22;16.20;37.30
62154;DHT22;48140;45.486;9.226;2022-09-20T04:38:16;16.20;37.30
62154;DHT22;48140;45.486;9.226;2022-09-20T04:46:02;16.30;37.10
62154;DHT22;48140;45.486;9.226;2022-09-20T04:51:47;16.20;37.40
62154;DHT22;48140;45.486;9.226;2022-09-20T04:56:30;16.20;37.90
62154;DHT22;48140;45.486;9.226;2022-09-20T04:59:02;16.20;38.10
62154;DHT22;48140;45.486;9.226;2022-09-20T05:19:26;16.50;37.90
62154;DHT22;48140;45.486;9.226;2022-09-20T05:22:23;16.50;38.20
62154;DHT22;48140;45.486;9.226;2022-09-20T05:25:07;16.40;38.50
62154;DHT22;48140;45.486;9.226;2022-09-20T05:43:22;16.50;38.20
62154;DHT22;48140;45.486;9.226;2022-09-20T06:03:54;16.90;38.10
62154;DHT22;48140;45.486;9.226;2022-09-20T06:06:26;17.00;38.00
62154;DHT22;48140;45.486;9.226;2022-09-20T06:13:56;17.10;38.00
62154;DHT22;48140;45.486;9.226;2022-09-20T06:19:10;17.30;38.10
62154;DHT22;48140;45.486;9.226;2022-09-20T06:21:49;17.40;38.20
62154;DHT22;48140;45.486;9.226;2022-09-20T06:24:59;17.40;37.80
62154;DHT22;48140;45.486;9.226;2022-09-20T06:27:05;17.40;38.00
62154;DHT22;48140;45.486;9.226;2022-09-20T06:29:34;17.50;37.60
62154;DHT22;48140;45.486;9.226;2022-09-20T06:32:00;17.60;37.40
62154;DHT22;48140;45.486;9.226;2022-09-20T06:34:26;17.50;37.80
62154;DHT22;48140;45.486;9.226;2022-09-20T06:43:05;17.60;40.50
62154;DHT22;48140;45.486;9.226;2022-09-20T06:45:30;17.70;41.20
62154;DHT22;48140;45.486;9.226;2022-09-20T06:47:56;17.70;42.30
62154;DHT22;48140;45.486;9.226;2022-09-20T06:50:21;17.80;41.80
62154;DHT22;48140;45.486;9.226;2022-09-20T06:52:47;17.80;42.00
62154;DHT22;48140;45.486;9.226;2022-09-20T06:55:33;17.90;42.10
62154;DHT22;48140;45.486;9.226;2022-09-20T06:58:02;17.90;42.20
62154;DHT22;48140;45.486;9.226;2022-09-20T07:00:27;18.00;42.20
62154;DHT22;48140;45.486;9.226;2022-09-20T07:02:54;18.10;42.20
62154;DHT22;48140;45.486;9.226;2022-09-20T07:05:21;18.10;42.80
62154;DHT22;48140;45.486;9.226;2022-09-20T07:07:46;18.20;42.90
62154;DHT22;48140;45.486;9.226;2022-09-20T07:10:13;18.30;42.80
62154;DHT22;48140;45.486;9.226;2022-09-20T07:12:39;18.30;42.30
62154;DHT22;48140;45.486;9.226;2022-09-20T07:15:05;18.40;42.20
62154;DHT22;48140;45.486;9.226;2022-09-20T07:17:31;18.50;42.50
62154;DHT22;48140;45.486;9.226;2022-09-20T07:19:58;18.60;42.30
62154;DHT22;48140;45.486;9.226;2022-09-20T07:22:24;18.60;42.30
62154;DHT22;48140;45.486;9.226;2022-09-20T07:24:49;18.70;42.30
62154;DHT22;48140;45.486;9.226;2022-09-20T07:27:15;18.80;41.70
62154;DHT22;48140;45.486;9.226;2022-09-20T07:29:40;18.80;41.80
62154;DHT22;48140;45.486;9.226;2022-09-20T07:32:06;18.90;41.50
62154;DHT22;48140;45.486;9.226;2022-09-20T07:34:32;18.80;41.20
62154;DHT22;48140;45.486;9.226;2022-09-20T07:36:58;18.70;41.80
62154;DHT22;48140;45.486;9.226;2022-09-20T07:39:26;18.90;41.50
62154;DHT22;48140;45.486;9.226;2022-09-20T07:41:52;19.00;41.00
62154;DHT22;48140;45.486;9.226;2022-09-20T07:44:18;19.00;40.80
62154;DHT22;48140;45.486;9.226;2022-09-20T07:46:49;19.10;40.70
62154;DHT22;48140;45.486;9.226;2022-09-20T07:49:14;19.10;40.60
62154;DHT22;48140;45.486;9.226;2022-09-20T07:51:40;19.10;40.40
62154;DHT22;48140;45.486;9.226;2022-09-20T07:54:06;19.10;39.90
62154;DHT22;48140;45.486;9.226;2022-09-20T07:56:31;19.20;39.70
62154;DHT22;48140;45.486;9.226;2022-09-20T07:58:57;19.40;39.80
62154;DHT22;48140;45.486;9.226;2022-09-20T08:01:22;19.50;38.90
62154;DHT22;48140;45.486;9.226;2022-09-20T08:03:48;19.60;38.70
62154;DHT22;48140;45.486;9.226;2022-09-20T08:06:13;19.80;38.00
62154;DHT22;48140;45.486;9.226;2022-09-20T08:08:40;19.80;37.50
62154;DHT22;48140;45.486;9.226;2022-09-20T08:11:07;20.00;37.20
62154;DHT22;48140;45.486;9.226;2022-09-20T08:13:37;20.10;37.00
62154;DHT22;48140;45.486;9.226;2022-09-20T08:16:04;20.20;36.60
62154;DHT22;48140;45.486;9.226;2022-09-20T08:18:30;20.30;36.40
62154;DHT22;48140;45.486;9.226;2022-09-20T08:21:01;20.40;35.90
62154;DHT22;48140;45.486;9.226;2022-09-20T08:23:32;20.50;35.60
62154;DHT22;48140;45.486;9.226;2022-09-20T08:25:58;20.60;35.50
62154;DHT22;48140;45.486;9.226;2022-09-20T08:28:23;20.40;35.80
62154;DHT22;48140;45.486;9.226;2022-09-20T08:30:49;20.60;35.50
62154;DHT22;48140;45.486;9.226;2022-09-20T08:33:14;20.60;35.90
62154;DHT22;48140;45.486;9.226;2022-09-20T08:35:40;20.60;35.90
62154;DHT22;48140;45.486;9.226;2022-09-20T08:38:05;20.80;35.80
62154;DHT22;48140;45.486;9.226;2022-09-20T08:40:31;20.90;35.10
62154;DHT22;48140;45.486;9.226;2022-09-20T08:42:57;21.00;35.20
62154;DHT22;48140;45.486;9.226;2022-09-20T08:45:24;21.20;36.10
62154;DHT22;48140;45.486;9.226;2022-09-20T08:47:52;21.30;34.90
62154;DHT22;48140;45.486;9.226;2022-09-20T08:50:19;21.40;35.30
62154;DHT22;48140;45.486;9.226;2022-09-20T08:52:45;21.50;35.60
62154;DHT22;48140;45.486;9.226;2022-09-20T08:55:16;21.50;34.90
62154;DHT22;48140;45.486;9.226;2022-09-20T08:57:43;21.60;34.80
62154;DHT22;48140;45.486;9.226;2022-09-20T09:00:13;21.70;34.90
62154;DHT22;48140;45.486;9.226;2022-09-20T09:02:41;21.80;35.40
62154;DHT22;48140;45.486;9.226;2022-09-20T09:05:50;22.00;35.00
62154;DHT22;48140;45.486;9.226;2022-09-20T09:07:56;22.10;34.60
62154;DHT22;48140;45.486;9.226;2022-09-20T09:10:24;22.50;34.10
62154;DHT22;48140;45.486;9.226;2022-09-20T09:12:51;22.50;34.00
62154;DHT22;48140;45.486;9.226;2022-09-20T09:15:24;22.70;34.00
62154;DHT22;48140;45.486;9.226;2022-09-20T09:17:53;22.80;33.70
62154;DHT22;48140;45.486;9.226;2022-09-20T09:20:21;22.70;33.80
62154;DHT22;48140;45.486;9.226;2022-09-20T09:22:47;22.70;33.40
62154;DHT22;48140;45.486;9.226;2022-09-20T09:27:55;23.10;34.20
62154;DHT22;48140;45.486;9.226;2022-09-20T09:32:47;23.50;33.10
62154;DHT22;48140;45.486;9.226;2022-09-20T09:35:30;23.60;32.90
62154;DHT22;48140;45.486;9.226;2022-09-20T09:38:00;23.70;32.60
62154;DHT22;48140;45.486;9.226;2022-09-20T09:40:27;23.80;31.80
62154;DHT22;48140;45.486;9.226;2022-09-20T09:42:54;23.80;31.80
62154;DHT22;48140;45.486;9.226;2022-09-20T09:45:25;24.00;31.80
62154;DHT22;48140;45.486;9.226;2022-09-20T09:47:51;24.00;31.80
62154;DHT22;48140;45.486;9.226;2022-09-20T09:50:24;24.00;32.00
62154;DHT22;48140;45.486;9.226;2022-09-20T09:52:56;23.90;32.20
62154;DHT22;48140;45.486;9.226;2022-09-20T09:55:22;24.00;32.40
62154;DHT22;48140;45.486;9.226;2022-09-20T09:57:51;24.20;32.00
62154;DHT22;48140;45.486;9.226;2022-09-20T10:00:20;24.30;31.60
62154;DHT22;48140;45.486;9.226;2022-09-20T10:13:21;25.00;30.30
62154;DHT22;48140;45.486;9.226;2022-09-20T10:16:02;25.00;30.20
62154;DHT22;48140;45.486;9.226;2022-09-20T10:26:15;25.30;29.80
62154;DHT22;48140;45.486;9.226;2022-09-20T10:31:42;25.50;29.50
62154;DHT22;48140;45.486;9.226;2022-09-20T10:36:48;25.90;29.30
62154;DHT22;48140;45.486;9.226;2022-09-20T10:39:21;26.20;29.00
62154;DHT22;48140;45.486;9.226;2022-09-20T10:47:15;26.10;28.80
62154;DHT22;48140;45.486;9.226;2022-09-20T10:50:06;26.20;28.30
62154;DHT22;48140;45.486;9.226;2022-09-20T11:10:43;27.20;27.30
62154;DHT22;48140;45.486;9.226;2022-09-20T11:13:21;27.00;27.60
62154;DHT22;48140;45.486;9.226;2022-09-20T11:15:59;27.30;27.40
62154;DHT22;48140;45.486;9.226;2022-09-20T11:18:28;27.50;27.00
62154;DHT22;48140;45.486;9.226;2022-09-20T11:23:23;28.00;26.20
62154;DHT22;48140;45.486;9.226;2022-09-20T11:25:55;28.10;26.10
62154;DHT22;48140;45.486;9.226;2022-09-20T11:30:54;28.20;26.10
62154;DHT22;48140;45.486;9.226;2022-09-20T11:33:24;28.40;26.00
62154;DHT22;48140;45.486;9.226;2022-09-20T11:35:51;28.30;25.70
62154;DHT22;48140;45.486;9.226;2022-09-20T11:40:56;27.60;26.20
62154;DHT22;48140;45.486;9.226;2022-09-20T11:43:23;27.80;26.20
62154;DHT22;48140;45.486;9.226;2022-09-20T11:45:59;28.30;25.90
62154;DHT22;48140;45.486;9.226;2022-09-20T11:51:03;28.50;25.30
62154;DHT22;48140;45.486;9.226;2022-09-20T11:56:18;28.20;25.70
62154;DHT22;48140;45.486;9.226;2022-09-20T11:58:49;27.90;25.90
62154;DHT22;48140;45.486;9.226;2022-09-20T12:01:15;27.90;25.60
62154;DHT22;48140;45.486;9.226;2022-09-20T12:03:50;28.10;25.20
62154;DHT22;48140;45.486;9.226;2022-09-20T12:08:48;28.50;24.40
62154;DHT22;48140;45.486;9.226;2022-09-20T12:11:14;28.70;24.20
62154;DHT22;48140;45.486;9.226;2022-09-20T12:13:41;28.80;24.30
62154;DHT22;48140;45.486;9.226;2022-09-20T12:16:12;29.10;24.10
62154;DHT22;48140;45.486;9.226;2022-09-20T12:21:17;29.10;24.20
62154;DHT22;48140;45.486;9.226;2022-09-20T12:28:49;29.80;22.50
62154;DHT22;48140;45.486;9.226;2022-09-20T12:36:21;29.30;22.80
62154;DHT22;48140;45.486;9.226;2022-09-20T12:38:49;29.70;22.80
62154;DHT22;48140;45.486;9.226;2022-09-20T12:41:16;29.70;22.70
62154;DHT22;48140;45.486;9.226;2022-09-20T12:43:54;29.80;23.20
62154;DHT22;48140;45.486;9.226;2022-09-20T12:46:30;29.90;23.30
62154;DHT22;48140;45.486;9.226;2022-09-20T12:49:11;30.40;22.70
62154;DHT22;48140;45.486;9.226;2022-09-20T12:52:02;30.50;22.30
62154;DHT22;48140;45.486;9.226;2022-09-20T12:54:50;30.50;22.30
62154;DHT22;48140;45.486;9.226;2022-09-20T12:57:17;30.70;21.60
62154;DHT22;48140;45.486;9.226;2022-09-20T12:59:52;30.50;21.70
62154;DHT22;48140;45.486;9.226;2022-09-20T13:05:28;28.70;23.30
62154;DHT22;48140;45.486;9.226;2022-09-20T13:07:54;29.00;23.40
62154;DHT22;48140;45.486;9.226;2022-09-20T13:10:28;29.10;23.40
62154;DHT22;48140;45.486;9.226;2022-09-20T13:12:56;29.40;23.20
62154;DHT22;48140;45.486;9.226;2022-09-20T13:15:23;29.40;23.20
62154;DHT22;48140;45.486;9.226;2022-09-20T13:17:49;29.90;23.00
62154;DHT22;48140;45.486;9.226;2022-09-20T13:20:19;30.20;22.40
62154;DHT22;48140;45.486;9.226;2022-09-20T13:22:45;30.10;22.20
62154;DHT22;48140;45.486;9.226;2022-09-20T13:25:15;29.80;22.50
62154;DHT22;48140;45.486;9.226;2022-09-20T13:28:00;29.70;22.50
62154;DHT22;48140;45.486;9.226;2022-09-20T13:30:28;30.10;22.20
62154;DHT22;48140;45.486;9.226;2022-09-20T13:33:12;30.50;21.70
62154;DHT22;48140;45.486;9.226;2022-09-20T13:35:38;30.50;21.70
62154;DHT22;48140;45.486;9.226;2022-09-20T13:38:06;30.50;21.80
62154;DHT22;48140;45.486;9.226;2022-09-20T13:43:00;30.60;21.50
62154;DHT22;48140;45.486;9.226;2022-09-20T13:45:26;30.70;21.70
62154;DHT22;48140;45.486;9.226;2022-09-20T13:47:53;30.60;21.50
62154;DHT22;48140;45.486;9.226;2022-09-20T13:50:21;30.20;21.70
62154;DHT22;48140;45.486;9.226;2022-09-20T13:52:49;30.40;21.90
62154;DHT22;48140;45.486;9.226;2022-09-20T13:55:19;30.60;21.80
62154;DHT22;48140;45.486;9.226;2022-09-20T13:57:45;30.80;21.30
62154;DHT22;48140;45.486;9.226;2022-09-20T14:00:15;30.80;21.30
62154;DHT22;48140;45.486;9.226;2022-09-20T14:02:41;30.50;21.40
62154;DHT22;48140;45.486;9.226;2022-09-20T14:05:12;30.50;22.50
62154;DHT22;48140;45.486;9.226;2022-09-20T14:07:39;30.50;21.60
62154;DHT22;48140;45.486;9.226;2022-09-20T14:10:25;30.20;21.70
62154;DHT22;48140;45.486;9.226;2022-09-20T14:12:51;29.80;22.10
62154;DHT22;48140;45.486;9.226;2022-09-20T14:15:17;29.20;22.70
62154;DHT22;48140;45.486;9.226;2022-09-20T14:17:42;29.40;22.60
62154;DHT22;48140;45.486;9.226;2022-09-20T14:20:11;29.80;22.30
62154;DHT22;48140;45.486;9.226;2022-09-20T14:22:38;30.40;21.80
62154;DHT22;48140;45.486;9.226;2022-09-20T14:27:38;30.80;21.10
62154;DHT22;48140;45.486;9.226;2022-09-20T14:30:04;31.10;20.90
62154;DHT22;48140;45.486;9.226;2022-09-20T14:37:29;31.30;20.70
62154;DHT22;48140;45.486;9.226;2022-09-20T14:39:56;31.30;20.60
62154;DHT22;48140;45.486;9.226;2022-09-20T14:42:44;31.00;20.50
62154;DHT22;48140;45.486;9.226;2022-09-20T14:50:36;30.80;20.80
62154;DHT22;48140;45.486;9.226;2022-09-20T14:53:17;31.20;20.60
62154;DHT22;48140;45.486;9.226;2022-09-20T14:58:18;30.80;20.90
62154;DHT22;48140;45.486;9.226;2022-09-20T15:00:54;30.30;21.50
62154;DHT22;48140;45.486;9.226;2022-09-20T15:03:38;30.10;21.60
62154;DHT22;48140;45.486;9.226;2022-09-20T15:06:05;30.20;21.40
62154;DHT22;48140;45.486;9.226;2022-09-20T15:08:32;29.60;21.40
62154;DHT22;48140;45.486;9.226;2022-09-20T15:10:58;29.80;21.90
62154;DHT22;48140;45.486;9.226;2022-09-20T15:13:24;30.00;21.90
62154;DHT22;48140;45.486;9.226;2022-09-20T15:15:50;30.30;21.60
62154;DHT22;48140;45.486;9.226;2022-09-20T15:18:18;30.50;21.20
62154;DHT22;48140;45.486;9.226;2022-09-20T15:20:45;30.50;21.20
62154;DHT22;48140;45.486;9.226;2022-09-20T15:23:10;30.40;21.30
62154;DHT22;48140;45.486;9.226;2022-09-20T15:25:37;30.30;21.50
62154;DHT22;48140;45.486;9.226;2022-09-20T15:28:02;30.30;21.50
62154;DHT22;48140;45.486;9.226;2022-09-20T15:30:28;30.70;21.30
62154;DHT22;48140;45.486;9.226;2022-09-20T15:32:54;31.10;20.70
62154;DHT22;48140;45.486;9.226;2022-09-20T15:35:20;31.30;21.60
62154;DHT22;48140;45.486;9.226;2022-09-20T15:37:46;31.50;20.40
62154;DHT22;48140;45.486;9.226;2022-09-20T15:40:12;31.70;21.20
62154;DHT22;48140;45.486;9.226;2022-09-20T15:42:37;31.80;20.20
62154;DHT22;48140;45.486;9.226;2022-09-20T15:45:06;31.70;20.10
62154;DHT22;48140;45.486;9.226;2022-09-20T15:47:34;31.80;20.20
62154;DHT22;48140;45.486;9.226;2022-09-20T15:49:59;31.90;19.90
62154;DHT22;48140;45.486;9.226;2022-09-20T15:52:25;31.70;20.00
62154;DHT22;48140;45.486;9.226;2022-09-20T15:54:52;31.00;20.60
62154;DHT22;48140;45.486;9.226;2022-09-20T15:57:18;30.50;21.30
62154;DHT22;48140;45.486;9.226;2022-09-20T15:59:44;30.60;21.40
62154;DHT22;48140;45.486;9.226;2022-09-20T16:02:10;30.70;21.10
62154;DHT22;48140;45.486;9.226;2022-09-20T16:04:36;30.90;21.10
62154;DHT22;48140;45.486;9.226;2022-09-20T16:07:02;31.00;21.00
62154;DHT22;48140;45.486;9.226;2022-09-20T16:09:29;31.00;20.90
62154;DHT22;48140;45.486;9.226;2022-09-20T16:11:55;30.90;20.90
62154;DHT22;48140;45.486;9.226;2022-09-20T16:14:23;30.80;20.90
62154;DHT22;48140;45.486;9.226;2022-09-20T16:16:48;30.60;21.10
62154;DHT22;48140;45.486;9.226;2022-09-20T16:19:14;30.40;21.40
62154;DHT22;48140;45.486;9.226;2022-09-20T16:21:45;30.40;21.60
62154;DHT22;48140;45.486;9.226;2022-09-20T16:24:13;30.30;21.60
62154;DHT22;48140;45.486;9.226;2022-09-20T16:26:38;30.20;21.70
62154;DHT22;48140;45.486;9.226;2022-09-20T16:29:04;30.20;21.70
62154;DHT22;48140;45.486;9.226;2022-09-20T16:31:35;30.10;21.70
62154;DHT22;48140;45.486;9.226;2022-09-20T16:36:38;29.70;22.10
62154;DHT22;48140;45.486;9.226;2022-09-20T16:39:08;29.80;22.50
62154;DHT22;48140;45.486;9.226;2022-09-20T16:41:33;29.90;22.40
62154;DHT22;48140;45.486;9.226;2022-09-20T16:44:00;29.90;22.30
62154;DHT22;48140;45.486;9.226;2022-09-20T16:46:25;29.60;22.40
62154;DHT22;48140;45.486;9.226;2022-09-20T16:48:54;29.10;22.80
62154;DHT22;48140;45.486;9.226;2022-09-20T16:51:21;28.50;23.60
62154;DHT22;48140;45.486;9.226;2022-09-20T16:53:49;27.80;24.40
62154;DHT22;48140;45.486;9.226;2022-09-20T16:56:25;27.20;25.20
62154;DHT22;48140;45.486;9.226;2022-09-20T16:58:50;26.70;25.80
62154;DHT22;48140;45.486;9.226;2022-09-20T17:01:16;26.30;26.30
62154;DHT22;48140;45.486;9.226;2022-09-20T17:03:42;26.00;26.70
62154;DHT22;48140;45.486;9.226;2022-09-20T17:06:09;25.70;27.10
62154;DHT22;48140;45.486;9.226;2022-09-20T17:08:35;25.40;27.60
62154;DHT22;48140;45.486;9.226;2022-09-20T17:11:14;25.10;27.90
62154;DHT22;48140;45.486;9.226;2022-09-20T17:13:41;24.90;28.30
62154;DHT22;48140;45.486;9.226;2022-09-20T17:16:09;24.70;28.70
62154;DHT22;48140;45.486;9.226;2022-09-20T17:18:35;24.60;29.00
62154;DHT22;48140;45.486;9.226;2022-09-20T17:21:07;24.40;29.40
62154;DHT22;48140;45.486;9.226;2022-09-20T17:23:32;24.30;29.50
62154;DHT22;48140;45.486;9.226;2022-09-20T17:26:05;24.30;29.80
62154;DHT22;48140;45.486;9.226;2022-09-20T17:28:38;24.30;29.80
62154;DHT22;48140;45.486;9.226;2022-09-20T17:31:05;24.30;29.80
62154;DHT22;48140;45.486;9.226;2022-09-20T17:33:31;24.40;30.00
62154;DHT22;48140;45.486;9.226;2022-09-20T17:35:57;24.20;30.70
62154;DHT22;48140;45.486;9.226;2022-09-20T17:38:25;24.10;30.40
62154;DHT22;48140;45.486;9.226;2022-09-20T17:41:02;24.00;30.30
62154;DHT22;48140;45.486;9.226;2022-09-20T17:43:28;24.00;30.60
62154;DHT22;48140;45.486;9.226;2022-09-20T17:46:02;23.70;31.00
62154;DHT22;48140;45.486;9.226;2022-09-20T17:48:28;23.70;31.40
62154;DHT22;48140;45.486;9.226;2022-09-20T17:50:55;23.60;31.70
62154;DHT22;48140;45.486;9.226;2022-09-20T17:53:20;23.40;32.60
62154;DHT22;48140;45.486;9.226;2022-09-20T17:55:55;23.30;33.00
62154;DHT22;48140;45.486;9.226;2022-09-20T17:58:21;23.30;32.70
62154;DHT22;48140;45.486;9.226;2022-09-20T18:00:47;23.10;33.10
62154;DHT22;48140;45.486;9.226;2022-09-20T18:03:13;23.10;33.30
62154;DHT22;48140;45.486;9.226;2022-09-20T18:05:39;23.00;33.90
62154;DHT22;48140;45.486;9.226;2022-09-20T18:08:04;22.90;34.30
62154;DHT22;48140;45.486;9.226;2022-09-20T18:10:30;22.90;34.20
62154;DHT22;48140;45.486;9.226;2022-09-20T18:12:55;22.80;34.30
62154;DHT22;48140;45.486;9.226;2022-09-20T18:15:21;22.80;35.00
62154;DHT22;48140;45.486;9.226;2022-09-20T18:17:48;22.80;34.90
62154;DHT22;48140;45.486;9.226;2022-09-20T18:20:14;22.70;34.90
62154;DHT22;48140;45.486;9.226;2022-09-20T18:22:39;22.50;35.30
62154;DHT22;48140;45.486;9.226;2022-09-20T18:25:05;22.50;35.90
62154;DHT22;48140;45.486;9.226;2022-09-20T18:27:31;22.40;36.10
62154;DHT22;48140;45.486;9.226;2022-09-20T18:29:58;22.40;36.40
62154;DHT22;48140;45.486;9.226;2022-09-20T18:32:24;22.40;36.70
62154;DHT22;48140;45.486;9.226;2022-09-20T18:34:51;22.30;36.90
62154;DHT22;48140;45.486;9.226;2022-09-20T18:37:16;22.20;37.50
62154;DHT22;48140;45.486;9.226;2022-09-20T18:39:42;22.10;37.80
62154;DHT22;48140;45.486;9.226;2022-09-20T18:42:08;22.10;38.20
62154;DHT22;48140;45.486;9.226;2022-09-20T18:44:34;22.10;38.30
62154;DHT22;48140;45.486;9.226;2022-09-20T18:47:01;22.00;38.50
62154;DHT22;48140;45.486;9.226;2022-09-20T18:49:27;22.00;39.00
62154;DHT22;48140;45.486;9.226;2022-09-20T18:51:54;22.00;39.10
62154;DHT22;48140;45.486;9.226;2022-09-20T18:54:20;22.00;39.20
62154;DHT22;48140;45.486;9.226;2022-09-20T18:56:47;21.90;39.40
62154;DHT22;48140;45.486;9.226;2022-09-20T18:59:15;21.80;40.80
62154;DHT22;48140;45.486;9.226;2022-09-20T19:07:02;21.70;40.40
62154;DHT22;48140;45.486;9.226;2022-09-20T19:12:06;21.70;41.00
62154;DHT22;48140;45.486;9.226;2022-09-20T19:14:55;21.70;40.90
62154;DHT22;48140;45.486;9.226;2022-09-20T19:17:29;21.70;40.80
62154;DHT22;48140;45.486;9.226;2022-09-20T19:20:03;21.60;41.30
62154;DHT22;48140;45.486;9.226;2022-09-20T19:22:45;21.60;41.50
62154;DHT22;48140;45.486;9.226;2022-09-20T19:27:42;21.40;42.00
62154;DHT22;48140;45.486;9.226;2022-09-20T19:30:11;21.40;42.40
62154;DHT22;48140;45.486;9.226;2022-09-20T19:32:36;21.30;42.50
62154;DHT22;48140;45.486;9.226;2022-09-20T19:35:02;21.30;42.60
62154;DHT22;48140;45.486;9.226;2022-09-20T19:47:50;21.10;43.00
62154;DHT22;48140;45.486;9.226;2022-09-20T19:52:52;21.10;43.30
62154;DHT22;48140;45.486;9.226;2022-09-20T19:55:18;21.00;43.50
62154;DHT22;48140;45.486;9.226;2022-09-20T19:57:44;21.00;43.70
62154;DHT22;48140;45.486;9.226;2022-09-20T20:00:16;20.90;43.70
62154;DHT22;48140;45.486;9.226;2022-09-20T20:02:42;20.90;44.20
62154;DHT22;48140;45.486;9.226;2022-09-20T20:05:18;20.90;44.10
62154;DHT22;48140;45.486;9.226;2022-09-20T20:07:48;20.80;44.40
62154;DHT22;48140;45.486;9.226;2022-09-20T20:12:47;20.80;44.50
62154;DHT22;48140;45.486;9.226;2022-09-20T20:18:04;20.70;44.90
62154;DHT22;48140;45.486;9.226;2022-09-20T20:20:35;20.60;45.10
62154;DHT22;48140;45.486;9.226;2022-09-20T20:25:59;20.50;45.50
62154;DHT22;48140;45.486;9.226;2022-09-20T20:28:30;20.50;45.80
62154;DHT22;48140;45.486;9.226;2022-09-20T20:30:55;20.40;46.00
62154;DHT22;48140;45.486;9.226;2022-09-20T20:33:23;20.40;46.00
62154;DHT22;48140;45.486;9.226;2022-09-20T20:35:55;20.40;46.10
62154;DHT22;48140;45.486;9.226;2022-09-20T20:38:22;20.40;45.90
62154;DHT22;48140;45.486;9.226;2022-09-20T20:41:23;20.30;46.20
62154;DHT22;48140;45.486;9.226;2022-09-20T20:43:43;20.30;46.60
62154;DHT22;48140;45.486;9.226;2022-09-20T20:46:11;20.30;46.90
62154;DHT22;48140;45.486;9.226;2022-09-20T20:48:38;20.20;46.90
62154;DHT22;48140;45.486;9.226;2022-09-20T20:51:05;20.20;47.30
62154;DHT22;48140;45.486;9.226;2022-09-20T20:53:34;20.20;47.30
62154;DHT22;48140;45.486;9.226;2022-09-20T20:56:00;20.20;47.50
62154;DHT22;48140;45.486;9.226;2022-09-20T20:58:29;20.10;47.70
62154;DHT22;48140;45.486;9.226;2022-09-20T21:01:04;20.00;48.10
62154;DHT22;48140;45.486;9.226;2022-09-20T21:03:29;20.00;48.40
62154;DHT22;48140;45.486;9.226;2022-09-20T21:05:55;19.90;48.80